Randolph, Texas
Current Conditions -  °F | °C
As of 7:53 AM on Sunday 25 Jan 2015 (Local Time) from KTKI Reporting Station
Clear Clear  
Wind Chill: 39°   Ceiling: Unl
Heat Index: 44°   Visibility: 10mi
Dew Point: 35°   Wind: 10mph
Humidity: 71%   Direction: 300°WNW
Pressure: 29.98"   Gusts: NA
Location:  33.49°N, 96.25°W
Report Text: KTKI 251353Z 30009KT 10SM CLR 07/02 A2998 RMK AO2 SLP163 T00670017
Loading
Personal Weather Stations






























Interactive Weather Map New forecast layout! Learn more

10-Day Weather Forecast

Advertisements
Track Severe Weather on mobile